createdAt,value
2023-02-11T00:01:26.602Z,50.12
2023-02-11T00:03:55.147Z,49.88
2023-02-11T00:06:23.880Z,50.59
2023-02-11T00:08:51.854Z,50.04
2023-02-11T00:11:21.089Z,50.18
2023-02-11T00:13:49.017Z,49.60
2023-02-11T00:16:18.397Z,49.85
2023-02-11T00:18:46.675Z,50.52
2023-02-11T00:21:16.037Z,50.28
2023-02-11T00:23:44.819Z,50.35
2023-02-11T00:26:23.721Z,51.29
2023-02-11T00:28:52.343Z,51.59
2023-02-11T00:31:22.042Z,50.94
2023-02-11T00:33:50.159Z,50.69
2023-02-11T00:36:19.625Z,49.51
2023-02-11T00:38:48.921Z,48.72
2023-02-11T00:41:17.177Z,48.21
2023-02-11T00:43:45.496Z,47.64
2023-02-11T00:46:14.201Z,48.32
2023-02-11T00:48:42.733Z,48.23
2023-02-11T00:51:10.884Z,47.66
2023-02-11T00:53:38.924Z,47.35
2023-02-11T00:56:07.049Z,46.87
2023-02-11T00:58:35.415Z,47.66
2023-02-11T01:01:04.178Z,47.71
2023-02-11T01:03:32.400Z,47.74
2023-02-11T01:06:00.998Z,47.16
2023-02-11T01:08:29.277Z,47.10
2023-02-11T01:11:02.256Z,47.09
2023-02-11T01:13:31.860Z,47.72
2023-02-11T01:16:00.326Z,48.34
2023-02-11T01:18:28.727Z,48.68
2023-02-11T01:20:56.885Z,48.09
2023-02-11T01:23:24.961Z,47.76
2023-02-11T01:25:53.235Z,48.15
2023-02-11T01:28:23.497Z,47.94
2023-02-11T01:30:52.035Z,48.04
2023-02-11T01:33:20.920Z,47.94
2023-02-11T01:35:49.757Z,47.27
2023-02-11T01:38:19.943Z,47.41
2023-02-11T01:40:52.867Z,46.79
2023-02-11T01:43:21.550Z,46.48
2023-02-11T01:46:16.030Z,46.53
2023-02-11T01:48:45.658Z,46.73
2023-02-11T01:51:16.812Z,47.07
2023-02-11T01:54:05.163Z,47.32
2023-02-11T01:56:53.935Z,47.53
2023-02-11T01:59:29.164Z,47.48
2023-02-11T02:01:59.181Z,48.50
2023-02-11T02:04:31.600Z,49.40
2023-02-11T02:07:02.158Z,49.10
2023-02-11T02:09:33.376Z,48.13
2023-02-11T02:12:01.401Z,48.27
2023-02-11T02:14:31.826Z,47.43
2023-02-11T02:16:59.971Z,46.54
2023-02-11T02:19:49.957Z,46.23
2023-02-11T02:22:36.483Z,46.30
2023-02-11T02:25:10.718Z,45.37
2023-02-11T02:27:57.369Z,45.82
2023-02-11T02:30:40.851Z,45.98
2023-02-11T02:33:28.939Z,47.30
2023-02-11T02:36:15.287Z,46.56
2023-02-11T02:38:48.812Z,47.60
2023-02-11T02:41:19.527Z,47.31
2023-02-11T02:43:51.518Z,47.77
2023-02-11T02:46:23.347Z,47.74
2023-02-11T02:48:55.908Z,49.76
2023-02-11T02:51:24.163Z,48.32
2023-02-11T02:53:55.319Z,48.78
2023-02-11T02:56:33.116Z,48.86
2023-02-11T02:59:10.505Z,49.42
2023-02-11T03:01:45.117Z,49.40
2023-02-11T03:04:22.941Z,48.60
2023-02-11T03:06:50.989Z,47.88
2023-02-11T03:09:19.221Z,46.47
2023-02-11T03:11:47.239Z,46.91
2023-02-11T03:14:17.356Z,46.74
2023-02-11T03:16:46.795Z,47.43
2023-02-11T03:19:18.743Z,46.88
2023-02-11T03:21:47.190Z,47.84
2023-02-11T03:24:28.810Z,49.08
2023-02-11T03:26:59.159Z,49.26
2023-02-11T03:29:36.400Z,48.25
2023-02-11T03:32:04.439Z,47.89
2023-02-11T03:34:32.504Z,48.03
2023-02-11T03:37:08.129Z,48.31
2023-02-11T03:39:38.708Z,48.47
2023-02-11T03:42:09.141Z,48.67
2023-02-11T03:44:40.474Z,48.20
2023-02-11T03:47:12.674Z,48.31
2023-02-11T03:49:41.941Z,48.83
2023-02-11T03:52:11.485Z,48.71
2023-02-11T03:54:42.716Z,47.78
2023-02-11T03:57:10.669Z,47.96
2023-02-11T03:59:52.110Z,47.48
2023-02-11T04:02:20.757Z,47.68
2023-02-11T04:04:48.852Z,47.28
2023-02-11T04:07:16.930Z,47.44
2023-02-11T04:09:44.870Z,49.06
2023-02-11T04:12:12.904Z,48.81
2023-02-11T04:14:40.997Z,48.68
2023-02-11T04:17:09.205Z,48.80
2023-02-11T04:19:37.342Z,48.26
2023-02-11T04:22:05.587Z,48.98
2023-02-11T04:24:34.164Z,49.19
2023-02-11T04:27:02.143Z,50.21
2023-02-11T04:29:30.250Z,49.90
2023-02-11T04:31:58.319Z,49.17
2023-02-11T04:34:26.725Z,49.36
2023-02-11T04:36:54.961Z,49.49
2023-02-11T04:39:22.993Z,48.87
2023-02-11T04:41:50.925Z,49.07
2023-02-11T04:44:19.140Z,48.08
2023-02-11T04:46:47.219Z,48.26
2023-02-11T04:49:16.931Z,48.56
2023-02-11T04:51:47.606Z,49.15
2023-02-11T04:54:17.791Z,49.60
2023-02-11T04:56:46.184Z,49.93
2023-02-11T04:59:14.339Z,50.28
2023-02-11T05:01:42.739Z,49.54
2023-02-11T05:04:10.781Z,49.46
2023-02-11T05:06:39.968Z,48.96
2023-02-11T05:09:08.752Z,49.08
2023-02-11T05:11:36.880Z,48.87
2023-02-11T05:14:05.937Z,49.27
2023-02-11T05:16:34.340Z,48.65
2023-02-11T05:19:02.459Z,48.36
2023-02-11T05:21:33.237Z,49.31
2023-02-11T05:24:01.375Z,48.40
2023-02-11T05:26:29.384Z,48.54
2023-02-11T05:28:57.827Z,50.11
2023-02-11T05:31:25.999Z,50.93
2023-02-11T05:33:54.365Z,49.71
2023-02-11T05:36:22.444Z,49.42
2023-02-11T05:38:51.764Z,48.93
2023-02-11T05:41:19.799Z,48.20
2023-02-11T05:43:50.054Z,48.37
2023-02-11T05:46:18.558Z,49.43
2023-02-11T05:48:46.838Z,50.58
2023-02-11T05:51:14.945Z,51.53
2023-02-11T05:53:42.937Z,49.13
2023-02-11T05:56:11.632Z,48.59
2023-02-11T05:58:39.660Z,48.92
2023-02-11T06:01:07.788Z,49.35
2023-02-11T06:03:35.930Z,49.13
2023-02-11T06:06:04.143Z,47.38
2023-02-11T06:08:32.452Z,47.36
2023-02-11T06:11:00.632Z,47.07
2023-02-11T06:13:28.800Z,47.39
2023-02-11T06:15:57.820Z,46.15
2023-02-11T06:18:29.777Z,45.94
2023-02-11T06:20:57.940Z,42.67
2023-02-11T06:23:28.535Z,42.26
2023-02-11T06:26:01.657Z,40.37
2023-02-11T06:28:31.556Z,40.47
2023-02-11T06:31:04.619Z,38.76
2023-02-11T06:33:33.344Z,37.90
2023-02-11T06:36:01.550Z,38.34
2023-02-11T06:38:29.784Z,37.10
2023-02-11T06:40:58.059Z,36.25
2023-02-11T06:43:26.192Z,34.89
2023-02-11T06:45:54.585Z,33.58
2023-02-11T06:48:23.488Z,32.94
2023-02-11T06:50:51.711Z,32.49
2023-02-11T06:53:19.842Z,31.95
2023-02-11T06:55:48.180Z,31.86
2023-02-11T06:58:16.389Z,32.03
2023-02-11T07:00:44.563Z,31.62
2023-02-11T07:03:12.944Z,31.23
2023-02-11T07:05:43.208Z,30.72
2023-02-11T07:08:11.334Z,30.47
2023-02-11T07:10:39.406Z,30.23
2023-02-11T07:13:07.694Z,30.32
2023-02-11T07:15:37.441Z,29.92
2023-02-11T07:18:05.560Z,30.00
2023-02-11T07:20:34.518Z,30.50
2023-02-11T07:23:02.519Z,29.98
2023-02-11T07:25:30.680Z,29.81
2023-02-11T07:27:58.785Z,29.47
2023-02-11T07:30:27.147Z,29.18
2023-02-11T07:32:56.252Z,29.13
2023-02-11T07:35:24.303Z,29.15
2023-02-11T07:37:52.442Z,29.03
2023-02-11T07:40:20.413Z,28.64
2023-02-11T07:42:48.716Z,28.20
2023-02-11T07:45:17.633Z,28.62
2023-02-11T07:47:45.896Z,29.46
2023-02-11T07:50:14.330Z,30.01
2023-02-11T07:52:42.326Z,30.38
2023-02-11T07:55:11.595Z,30.53
2023-02-11T07:57:39.825Z,30.47
2023-02-11T08:00:08.043Z,30.81
2023-02-11T08:02:39.257Z,31.51
2023-02-11T08:05:07.312Z,32.48
2023-02-11T08:07:35.312Z,33.88
2023-02-11T08:10:04.224Z,34.78
2023-02-11T08:12:32.277Z,35.75
2023-02-11T08:15:00.285Z,36.81
2023-02-11T08:17:28.351Z,37.49
2023-02-11T08:19:56.421Z,38.19
2023-02-11T08:22:24.454Z,38.89
2023-02-11T08:24:52.607Z,40.23
2023-02-11T08:27:20.723Z,41.52
2023-02-11T08:29:48.670Z,41.22
2023-02-11T08:32:16.674Z,41.28
2023-02-11T08:34:45.045Z,40.55
2023-02-11T08:37:13.092Z,39.94
2023-02-11T08:39:41.389Z,39.41
2023-02-11T08:42:09.559Z,39.16
2023-02-11T08:44:37.835Z,39.45
2023-02-11T08:47:05.760Z,40.28
2023-02-11T08:49:34.228Z,38.83
2023-02-11T08:52:04.422Z,38.68
2023-02-11T08:54:32.474Z,38.59
2023-02-11T08:57:02.168Z,38.23
2023-02-11T08:59:30.167Z,37.49
2023-02-11T09:01:58.394Z,37.49
2023-02-11T09:04:26.449Z,37.61
2023-02-11T09:06:54.880Z,37.33
2023-02-11T09:09:23.148Z,37.04
2023-02-11T09:11:51.076Z,38.21
2023-02-11T09:14:20.667Z,38.15
2023-02-11T09:16:49.308Z,37.97
2023-02-11T09:19:17.645Z,37.33
2023-02-11T09:21:45.955Z,37.51
2023-02-11T09:24:14.128Z,37.51
2023-02-11T09:26:43.353Z,37.14
2023-02-11T09:29:11.607Z,36.93
2023-02-11T09:31:39.722Z,36.94
2023-02-11T09:34:08.272Z,36.70
2023-02-11T09:36:38.491Z,36.49
2023-02-11T09:39:08.414Z,36.11
2023-02-11T09:41:42.838Z,35.78
2023-02-11T09:44:18.041Z,35.48
2023-02-11T09:46:48.070Z,35.03
2023-02-11T09:49:18.319Z,34.94
2023-02-11T09:51:52.383Z,34.59
2023-02-11T09:54:35.825Z,35.28
2023-02-11T09:57:04.113Z,35.25
2023-02-11T09:59:32.244Z,35.01
2023-02-11T10:02:09.856Z,34.66
2023-02-11T10:04:40.895Z,34.54
2023-02-11T10:07:12.265Z,35.02
2023-02-11T10:09:49.634Z,35.03
2023-02-11T10:12:30.538Z,35.30
2023-02-11T10:14:58.628Z,34.76
2023-02-11T10:17:26.701Z,35.42
2023-02-11T10:20:00.775Z,36.03
2023-02-11T10:22:32.936Z,35.67
2023-02-11T10:25:06.208Z,35.82
2023-02-11T10:27:36.046Z,36.48
2023-02-11T10:30:16.182Z,36.56
2023-02-11T10:32:52.189Z,35.99
2023-02-11T10:35:22.132Z,36.21
2023-02-11T10:37:50.443Z,35.33
2023-02-11T10:40:20.082Z,35.72
2023-02-11T10:42:49.853Z,35.19
2023-02-11T10:45:22.400Z,36.68
2023-02-11T10:47:50.500Z,36.70
2023-02-11T10:50:21.287Z,37.41
2023-02-11T10:52:49.630Z,36.59
2023-02-11T10:55:27.997Z,35.76
2023-02-11T10:57:58.409Z,35.33
2023-02-11T11:00:38.041Z,34.71
2023-02-11T11:03:35.445Z,35.79
2023-02-11T11:06:05.489Z,36.79
2023-02-11T11:08:53.840Z,36.26
2023-02-11T11:11:23.383Z,36.31
2023-02-11T11:13:54.455Z,35.39
2023-02-11T11:16:22.894Z,35.31
2023-02-11T11:18:53.341Z,35.25
2023-02-11T11:21:25.932Z,34.59
2023-02-11T11:23:58.927Z,34.65
2023-02-11T11:26:28.981Z,35.42
2023-02-11T11:29:07.696Z,35.11
2023-02-11T11:31:57.128Z,35.07
2023-02-11T11:34:42.025Z,34.85
2023-02-11T11:37:15.287Z,34.49
2023-02-11T11:39:48.735Z,34.59
2023-02-11T11:42:29.079Z,34.42
2023-02-11T11:45:01.928Z,34.35
2023-02-11T11:47:35.249Z,34.14
2023-02-11T11:50:06.756Z,33.87
2023-02-11T11:52:44.073Z,34.44
2023-02-11T11:55:20.832Z,34.45
2023-02-11T11:57:49.307Z,34.40
2023-02-11T12:00:19.625Z,34.10
2023-02-11T12:03:04.970Z,33.93
2023-02-11T12:05:51.703Z,33.74
2023-02-11T12:08:19.706Z,33.62
2023-02-11T12:10:53.750Z,33.65
2023-02-11T12:13:43.162Z,33.61
2023-02-11T12:16:20.524Z,33.53
2023-02-11T12:19:07.252Z,32.72
2023-02-11T12:21:41.703Z,33.32
2023-02-11T12:24:33.092Z,33.30
2023-02-11T12:27:27.270Z,34.52
2023-02-11T12:30:14.490Z,34.33
2023-02-11T12:32:52.266Z,34.32
2023-02-11T12:35:43.395Z,34.42
2023-02-11T12:38:26.477Z,34.26
2023-02-11T12:40:54.394Z,34.73
2023-02-11T12:43:22.534Z,35.47
2023-02-11T12:46:05.957Z,35.33
2023-02-11T12:48:37.333Z,35.43
2023-02-11T12:51:05.282Z,35.15
2023-02-11T12:53:36.348Z,34.96
2023-02-11T12:56:15.169Z,34.44
2023-02-11T12:58:45.813Z,34.42
2023-02-11T13:01:20.903Z,34.22
2023-02-11T13:03:57.774Z,33.63
2023-02-11T13:06:29.546Z,34.26
2023-02-11T13:09:02.212Z,34.62
2023-02-11T13:11:38.031Z,34.17
2023-02-11T13:14:09.359Z,34.35
2023-02-11T13:16:42.188Z,34.12
2023-02-11T13:19:12.955Z,34.42
2023-02-11T13:22:10.528Z,33.85
2023-02-11T13:24:51.614Z,34.38
2023-02-11T13:27:19.512Z,34.84
2023-02-11T13:30:06.533Z,34.94
2023-02-11T13:32:54.219Z,35.08
2023-02-11T13:35:30.430Z,35.40
2023-02-11T13:38:00.431Z,35.23
2023-02-11T13:40:30.503Z,35.41
2023-02-11T13:43:00.015Z,36.07
2023-02-11T13:45:38.739Z,36.23
2023-02-11T13:48:14.301Z,36.18
2023-02-11T13:50:48.442Z,36.54
2023-02-11T13:53:17.256Z,37.00
2023-02-11T13:55:46.691Z,37.07
2023-02-11T13:58:14.947Z,37.69
2023-02-11T14:00:51.495Z,37.30
2023-02-11T14:03:38.181Z,37.68
2023-02-11T14:06:28.121Z,37.62
2023-02-11T14:09:14.603Z,37.55
2023-02-11T14:11:55.420Z,37.83
2023-02-11T14:14:27.514Z,37.41
2023-02-11T14:16:58.859Z,37.85
2023-02-11T14:19:38.634Z,37.97
2023-02-11T14:22:13.703Z,38.48
2023-02-11T14:24:46.966Z,38.66
2023-02-11T14:27:21.508Z,39.04
2023-02-11T14:29:51.245Z,39.75
2023-02-11T14:32:33.007Z,40.06
2023-02-11T14:35:16.090Z,40.30
2023-02-11T14:37:50.668Z,40.04
2023-02-11T14:40:40.517Z,40.09
2023-02-11T14:43:20.108Z,40.34
2023-02-11T14:45:51.235Z,40.42
2023-02-11T14:48:20.462Z,40.86
2023-02-11T14:50:50.535Z,40.98
2023-02-11T14:53:21.173Z,41.18
2023-02-11T14:55:52.454Z,41.49
2023-02-11T14:58:21.966Z,41.54
2023-02-11T15:01:10.598Z,42.11
2023-02-11T15:03:42.677Z,42.72
2023-02-11T15:06:29.259Z,42.90
2023-02-11T15:09:06.301Z,43.38
2023-02-11T15:11:39.592Z,43.61
2023-02-11T15:14:12.301Z,43.47
2023-02-11T15:16:42.073Z,43.51
2023-02-11T15:19:20.253Z,44.27
2023-02-11T15:21:48.789Z,44.43
2023-02-11T15:24:27.783Z,44.64
2023-02-11T15:26:59.393Z,44.94
2023-02-11T15:29:38.778Z,45.46
2023-02-11T15:32:12.545Z,45.92
2023-02-11T15:34:41.039Z,45.96
2023-02-11T15:37:13.632Z,46.28
2023-02-11T15:39:42.285Z,47.01
2023-02-11T15:42:27.182Z,47.28
2023-02-11T15:45:14.192Z,47.02
2023-02-11T15:47:47.080Z,47.65
2023-02-11T15:50:20.067Z,47.39
2023-02-11T15:52:48.583Z,46.67
2023-02-11T15:55:17.878Z,46.56
2023-02-11T15:57:47.207Z,47.21
2023-02-11T16:00:19.205Z,47.40
2023-02-11T16:02:48.811Z,47.08
2023-02-11T16:05:29.381Z,46.87
2023-02-11T16:07:58.308Z,46.85
2023-02-11T16:10:30.438Z,46.86
2023-02-11T16:13:18.279Z,46.71
2023-02-11T16:15:49.017Z,46.83
2023-02-11T16:18:36.832Z,46.23
2023-02-11T16:21:07.743Z,45.79
2023-02-11T16:23:37.998Z,46.25
2023-02-11T16:26:32.680Z,46.02
2023-02-11T16:29:10.440Z,45.92
2023-02-11T16:31:40.435Z,45.81
2023-02-11T16:34:14.126Z,45.44
2023-02-11T16:36:42.672Z,45.60
2023-02-11T16:39:11.343Z,45.90
2023-02-11T16:41:39.616Z,45.02
2023-02-11T16:44:07.887Z,45.58
2023-02-11T16:46:36.670Z,46.27
2023-02-11T16:49:15.118Z,46.69
2023-02-11T16:51:43.612Z,47.79
2023-02-11T16:54:13.846Z,47.55
2023-02-11T16:56:42.429Z,48.05
2023-02-11T16:59:10.563Z,49.22
2023-02-11T17:01:40.399Z,49.50
2023-02-11T17:04:11.685Z,51.40
2023-02-11T17:06:39.896Z,52.41
2023-02-11T17:09:09.538Z,53.46
2023-02-11T17:11:37.628Z,54.25
2023-02-11T17:14:05.943Z,55.08
2023-02-11T17:16:34.161Z,55.12
2023-02-11T17:19:02.527Z,56.46
2023-02-11T17:21:32.140Z,57.39
2023-02-11T17:24:00.368Z,57.21
2023-02-11T17:26:28.444Z,56.94
2023-02-11T17:28:56.625Z,56.92
2023-02-11T17:31:24.810Z,57.29
2023-02-11T17:33:53.057Z,56.13
2023-02-11T17:36:21.145Z,55.55
2023-02-11T17:38:49.272Z,55.68
2023-02-11T17:41:17.584Z,55.35
2023-02-11T17:43:45.508Z,54.87
2023-02-11T17:46:14.483Z,55.09
2023-02-11T17:48:42.717Z,54.81
2023-02-11T17:51:24.531Z,55.25
2023-02-11T17:53:53.802Z,56.81
2023-02-11T17:56:22.090Z,58.09
2023-02-11T17:58:50.317Z,58.63
2023-02-11T18:01:18.404Z,58.52
2023-02-11T18:03:46.802Z,58.58
2023-02-11T18:06:14.973Z,58.17
2023-02-11T18:08:43.274Z,57.85
2023-02-11T18:11:11.843Z,57.53
2023-02-11T18:13:39.834Z,58.02
2023-02-11T18:16:15.909Z,57.24
2023-02-11T18:18:44.692Z,55.63
2023-02-11T18:21:13.533Z,55.65
2023-02-11T18:23:43.286Z,54.93
2023-02-11T18:26:11.993Z,54.56
2023-02-11T18:28:40.628Z,53.71
2023-02-11T18:31:09.589Z,52.95
2023-02-11T18:33:39.154Z,51.20
2023-02-11T18:36:08.071Z,50.81
2023-02-11T18:38:36.514Z,51.02
2023-02-11T18:41:04.864Z,51.55
2023-02-11T18:43:34.429Z,51.90
2023-02-11T18:46:06.658Z,51.90
2023-02-11T18:48:34.883Z,52.08
2023-02-11T18:51:02.767Z,51.90
2023-02-11T18:53:30.943Z,50.31
2023-02-11T18:55:58.881Z,49.67
2023-02-11T18:58:26.887Z,49.46
2023-02-11T19:00:54.909Z,49.34
2023-02-11T19:03:22.805Z,48.60
2023-02-11T19:05:51.113Z,48.28
2023-02-11T19:08:19.691Z,48.46
2023-02-11T19:10:49.444Z,48.23
2023-02-11T19:13:17.804Z,47.21
2023-02-11T19:15:46.344Z,47.63
2023-02-11T19:18:15.638Z,47.50
2023-02-11T19:20:44.428Z,47.38
2023-02-11T19:23:12.391Z,48.20
2023-02-11T19:25:45.682Z,48.56
2023-02-11T19:28:13.787Z,48.45
2023-02-11T19:30:42.472Z,47.81
2023-02-11T19:33:10.779Z,47.91
2023-02-11T19:35:39.002Z,48.15
2023-02-11T19:38:07.378Z,47.97
2023-02-11T19:40:35.439Z,49.50
2023-02-11T19:43:03.620Z,50.48
2023-02-11T19:45:31.579Z,49.72
2023-02-11T19:47:59.531Z,48.64
2023-02-11T19:50:27.630Z,48.34
2023-02-11T19:52:55.711Z,48.14
2023-02-11T19:55:23.976Z,47.73
2023-02-11T19:57:52.036Z,48.01
2023-02-11T20:00:20.309Z,47.35
2023-02-11T20:02:51.667Z,47.45
2023-02-11T20:05:20.036Z,47.31
2023-02-11T20:07:47.989Z,47.62
2023-02-11T20:10:16.589Z,47.46
2023-02-11T20:12:44.548Z,46.92
2023-02-11T20:15:12.805Z,46.93
2023-02-11T20:17:40.896Z,47.46
2023-02-11T20:20:09.336Z,47.59
2023-02-11T20:22:37.283Z,47.58
2023-02-11T20:25:05.611Z,47.60
2023-02-11T20:27:33.547Z,47.52
2023-02-11T20:30:01.797Z,47.40
2023-02-11T20:32:32.820Z,47.59
2023-02-11T20:35:01.075Z,47.96
2023-02-11T20:37:29.164Z,47.66
2023-02-11T20:39:58.952Z,47.10
2023-02-11T20:42:27.576Z,46.50
2023-02-11T20:44:55.702Z,48.21
2023-02-11T20:47:23.877Z,49.22
2023-02-11T20:49:53.997Z,48.18
2023-02-11T20:52:22.389Z,47.85
2023-02-11T20:54:50.372Z,47.30
2023-02-11T20:57:18.375Z,48.24
2023-02-11T20:59:46.406Z,48.54
2023-02-11T21:02:14.796Z,48.90
2023-02-11T21:04:43.353Z,48.91
2023-02-11T21:07:11.406Z,48.81
2023-02-11T21:09:40.299Z,48.48
2023-02-11T21:12:08.887Z,48.01
2023-02-11T21:14:36.905Z,47.16
2023-02-11T21:17:04.916Z,47.21
2023-02-11T21:19:33.144Z,46.70
2023-02-11T21:22:01.906Z,46.53
2023-02-11T21:24:31.030Z,47.30
2023-02-11T21:26:59.288Z,47.35
2023-02-11T21:29:27.261Z,47.98
2023-02-11T21:31:55.487Z,48.32
2023-02-11T21:34:23.602Z,47.58
2023-02-11T21:36:52.473Z,47.72
2023-02-11T21:39:20.501Z,47.73
2023-02-11T21:41:48.539Z,47.82
2023-02-11T21:44:16.776Z,48.05
2023-02-11T21:46:48.275Z,48.10
2023-02-11T21:49:16.397Z,48.17
2023-02-11T21:51:44.328Z,48.27
2023-02-11T21:54:12.325Z,47.93
2023-02-11T21:56:40.833Z,48.40
2023-02-11T21:59:11.906Z,48.99
2023-02-11T22:01:39.799Z,49.86
2023-02-11T22:04:07.925Z,49.37
2023-02-11T22:06:36.021Z,49.41
2023-02-11T22:09:05.589Z,48.91
2023-02-11T22:11:33.658Z,49.26
2023-02-11T22:14:01.907Z,49.94
2023-02-11T22:16:30.651Z,49.51
2023-02-11T22:18:59.381Z,49.41
2023-02-11T22:21:27.506Z,48.81
2023-02-11T22:23:56.238Z,49.05
2023-02-11T22:26:25.956Z,49.02
2023-02-11T22:28:55.000Z,49.31
2023-02-11T22:31:28.019Z,49.42
2023-02-11T22:33:56.498Z,49.63
2023-02-11T22:36:25.905Z,49.48
2023-02-11T22:38:54.351Z,49.14
2023-02-11T22:41:22.961Z,49.20
2023-02-11T22:43:51.190Z,48.80
2023-02-11T22:46:19.801Z,49.26
2023-02-11T22:48:48.414Z,49.86
2023-02-11T22:51:17.914Z,50.29
2023-02-11T22:53:49.455Z,50.60
2023-02-11T22:56:17.629Z,50.55
2023-02-11T22:58:45.700Z,50.51
2023-02-11T23:01:14.359Z,49.43
2023-02-11T23:03:43.140Z,49.41
2023-02-11T23:06:11.810Z,49.13
2023-02-11T23:08:40.365Z,48.63
2023-02-11T23:11:09.952Z,48.96
2023-02-11T23:13:39.049Z,48.92
2023-02-11T23:16:09.413Z,48.82
2023-02-11T23:18:38.959Z,49.66
2023-02-11T23:21:12.075Z,49.58
2023-02-11T23:23:40.408Z,49.17
2023-02-11T23:26:11.152Z,49.00
2023-02-11T23:28:40.317Z,48.47
2023-02-11T23:31:15.974Z,47.99
2023-02-11T23:33:44.692Z,48.26
2023-02-11T23:36:12.757Z,48.16
2023-02-11T23:38:40.655Z,48.50
2023-02-11T23:41:08.943Z,48.37
2023-02-11T23:43:37.303Z,48.85
2023-02-11T23:46:05.579Z,48.76
2023-02-11T23:48:36.099Z,49.43
2023-02-11T23:51:04.363Z,49.47
2023-02-11T23:53:32.339Z,49.39
2023-02-11T23:56:00.329Z,49.39
2023-02-11T23:58:28.531Z,49.53
